Janesville, Minnesota
Current Conditions -  °F | °C
As of 4:54 AM on Wednesday 22 Oct 2014 (Local Time) from KACQ Reporting Station
Clear Clear  
Wind Chill: 32°   Ceiling: Unl
Heat Index: 39°   Visibility: 10mi
Dew Point: 32°   Wind: 13mph
Humidity: 75%   Direction: 150°SSE
Pressure: 30.2"   Gusts: NA
Location:  44.12°N, 93.71°W
Report Text: KACQ 220954Z AUTO 15011KT 10SM CLR 04/00 A3020 RMK AO2
Loading
Personal Weather Stations






























Interactive Weather Map
Tropical Storm Tracking
New forecast layout! Learn more

10-Day Weather Forecast

Advertisements
Track Severe Weather on mobile